Time;durP1;ratioP1;P1;durP2;ratioP2;P2;SDS_P1;SDS_P2;PMS_P1;PMS_P2;Temp;Humidity;BMP_temperature;BMP_pressure;BME280_temperature;BME280_humidity;BME280_pressure;Samples;Min_cycle;Max_cycle;Signal;HPM_P1;HPM_P2
2021/07/03 00:01:21;;;;;;;18.17;14.13;;;;;;;;;;5054225;28;20412;-80
2021/07/03 00:03:47;;;;;;;15.40;12.70;;;;;;;;;;5054042;28;20412;-81
2021/07/03 00:06:13;;;;;;;16.13;12.97;;;;;;;;;;5054464;28;20408;-81
2021/07/03 00:08:40;;;;;;;18.27;13.60;;;;;;;;;;5053124;28;20489;-81
2021/07/03 00:11:07;;;;;;;17.90;13.20;;;;;;;;;;5054110;28;20518;-80
2021/07/03 00:13:33;;;;;;;13.70;12.20;;;;;;;;;;5053713;28;20506;-79
2021/07/03 00:15:59;;;;;;;19.33;13.73;;;;;;;;;;5054024;28;20420;-82
2021/07/03 00:18:25;;;;;;;19.17;12.47;;;;;;;;;;5053961;28;20424;-78
2021/07/03 00:20:51;;;;;;;20.17;13.27;;;;;;;;;;5053851;28;20407;-81
2021/07/03 00:23:17;;;;;;;16.43;12.93;;;;;;;;;;5052261;28;20454;-81
2021/07/03 00:25:43;;;;;;;15.10;13.50;;;;;;;;;;5053815;28;20828;-79
2021/07/03 00:28:09;;;;;;;16.60;12.70;;;;;;;;;;5053740;28;20964;-78
2021/07/03 00:30:35;;;;;;;16.50;13.10;;;;;;;;;;5053781;28;20412;-79
2021/07/03 00:33:02;;;;;;;19.73;12.70;;;;;;;;;;5053248;28;20445;-81
2021/07/03 00:35:28;;;;;;;14.70;12.30;;;;;;;;;;5052215;28;20609;-80
2021/07/03 00:37:54;;;;;;;16.30;13.77;;;;;;;;;;5052350;28;20807;-79
2021/07/03 00:40:21;;;;;;;18.37;12.80;;;;;;;;;;5052291;28;20442;-77
2021/07/03 00:42:47;;;;;;;17.50;13.57;;;;;;;;;;5053223;28;20410;-76
2021/07/03 00:45:13;;;;;;;17.17;13.70;;;;;;;;;;5051850;28;20486;-77
2021/07/03 00:47:39;;;;;;;14.80;13.00;;;;;;;;;;5053352;28;20416;-81
2021/07/03 00:50:09;;;;;;;18.73;15.80;;;;;;;;;;5053330;28;20519;-80
2021/07/03 00:52:35;;;;;;;21.33;14.37;;;;;;;;;;5053265;28;20417;-81
2021/07/03 00:55:01;;;;;;;19.00;14.70;;;;;;;;;;5052839;28;20480;-81
2021/07/03 00:57:27;;;;;;;22.50;17.50;;;;;;;;;;5053090;28;20818;-81
2021/07/03 00:59:53;;;;;;;26.33;18.37;;;;;;;;;;5052089;28;20415;-78
2021/07/03 01:02:19;;;;;;;28.70;18.60;;;;;;;;;;5053378;28;20932;-78
2021/07/03 01:04:45;;;;;;;25.80;18.77;;;;;;;;;;5051591;28;20875;-83
2021/07/03 01:07:12;;;;;;;22.03;16.60;;;;;;;;;;5035512;28;20473;-78
2021/07/03 01:09:39;;;;;;;25.90;17.40;;;;;;;;;;5051657;28;20427;-81
2021/07/03 01:12:06;;;;;;;22.70;17.10;;;;;;;;;;5053286;28;20775;-80
2021/07/03 01:14:32;;;;;;;26.43;17.20;;;;;;;;;;5051268;28;20479;-80
2021/07/03 01:16:58;;;;;;;24.97;17.27;;;;;;;;;;5053118;28;20443;-77
2021/07/03 01:19:24;;;;;;;23.20;16.70;;;;;;;;;;5053285;28;20444;-77
2021/07/03 01:21:54;;;;;;;23.30;17.70;;;;;;;;;;5051971;28;20423;-78
2021/07/03 01:24:23;;;;;;;22.27;18.27;;;;;;;;;;5052700;28;20434;-81
2021/07/03 01:26:50;;;;;;;24.83;17.70;;;;;;;;;;5051691;28;20435;-79
2021/07/03 01:29:16;;;;;;;23.17;17.10;;;;;;;;;;5053070;28;20412;-76
2021/07/03 01:31:44;;;;;;;25.67;18.20;;;;;;;;;;5052915;28;20416;-81
2021/07/03 01:34:10;;;;;;;24.40;18.97;;;;;;;;;;5052474;28;20452;-81
2021/07/03 01:36:36;;;;;;;27.17;18.67;;;;;;;;;;5052886;28;20893;-80
2021/07/03 01:39:04;;;;;;;30.30;19.27;;;;;;;;;;5052878;28;20765;-81
2021/07/03 01:41:30;;;;;;;22.07;18.10;;;;;;;;;;5052742;28;20893;-80
2021/07/03 01:43:56;;;;;;;22.93;18.20;;;;;;;;;;5052382;28;20439;-81
2021/07/03 01:46:22;;;;;;;25.03;17.60;;;;;;;;;;5051619;28;20461;-80
2021/07/03 01:48:48;;;;;;;22.90;16.87;;;;;;;;;;5052700;28;20412;-78
2021/07/03 01:51:14;;;;;;;28.27;19.57;;;;;;;;;;5051506;28;20423;-80
2021/07/03 01:53:40;;;;;;;24.13;19.67;;;;;;;;;;5050951;28;20391;-81
2021/07/03 01:56:09;;;;;;;26.83;19.53;;;;;;;;;;5052577;28;20408;-78
2021/07/03 01:58:35;;;;;;;24.87;19.00;;;;;;;;;;5052569;28;20419;-78
2021/07/03 02:01:02;;;;;;;34.63;20.20;;;;;;;;;;5052560;28;20754;-79
2021/07/03 02:03:28;;;;;;;25.27;19.60;;;;;;;;;;5052275;28;20408;-79
2021/07/03 02:05:54;;;;;;;24.10;19.53;;;;;;;;;;5051074;28;20913;-80
2021/07/03 02:08:20;;;;;;;26.37;20.50;;;;;;;;;;5052797;28;20494;-81
2021/07/03 02:10:46;;;;;;;27.00;17.77;;;;;;;;;;5052602;28;20497;-79
2021/07/03 02:13:12;;;;;;;23.80;18.50;;;;;;;;;;5052259;28;20887;-78
2021/07/03 02:15:39;;;;;;;26.30;20.77;;;;;;;;;;5052478;28;20472;-78
2021/07/03 02:18:05;;;;;;;26.93;19.50;;;;;;;;;;5051387;28;20494;-79
2021/07/03 02:20:31;;;;;;;27.53;20.10;;;;;;;;;;5052464;28;20816;-81
2021/07/03 02:22:58;;;;;;;26.63;19.93;;;;;;;;;;5055020;28;20412;-77
2021/07/03 02:25:24;;;;;;;25.77;20.23;;;;;;;;;;5055958;28;20435;-79
2021/07/03 02:27:50;;;;;;;23.37;18.70;;;;;;;;;;5056251;28;20400;-80
2021/07/03 02:30:17;;;;;;;25.37;18.83;;;;;;;;;;5055845;28;20948;-80
2021/07/03 02:32:43;;;;;;;26.57;18.63;;;;;;;;;;5055870;28;20416;-79
2021/07/03 02:35:10;;;;;;;24.93;19.30;;;;;;;;;;5055810;28;20899;-79
2021/07/03 02:37:36;;;;;;;24.27;17.63;;;;;;;;;;5055863;28;20416;-78
2021/07/03 02:40:04;;;;;;;28.20;20.57;;;;;;;;;;5055684;28;20407;-77
2021/07/03 02:42:30;;;;;;;22.07;17.50;;;;;;;;;;5055791;28;20798;-80
2021/07/03 02:44:56;;;;;;;26.20;18.20;;;;;;;;;;5054265;28;20473;-78
2021/07/03 02:47:22;;;;;;;24.30;19.40;;;;;;;;;;5037860;28;20777;-78
2021/07/03 02:49:48;;;;;;;30.97;19.10;;;;;;;;;;5055505;28;20424;-79
2021/07/03 02:52:14;;;;;;;23.63;19.40;;;;;;;;;;5055362;28;20424;-79
2021/07/03 02:54:40;;;;;;;28.83;19.60;;;;;;;;;;5053911;28;20468;-78
2021/07/03 02:57:06;;;;;;;25.17;18.40;;;;;;;;;;5054193;28;20448;-78
2021/07/03 02:59:32;;;;;;;24.03;18.10;;;;;;;;;;5054355;28;20503;-77
2021/07/03 03:01:58;;;;;;;28.37;19.37;;;;;;;;;;5055359;28;20414;-77
2021/07/03 03:04:24;;;;;;;31.83;18.77;;;;;;;;;;5054753;28;20435;-79
2021/07/03 03:06:50;;;;;;;25.03;18.00;;;;;;;;;;5055255;28;20431;-77
2021/07/03 03:09:16;;;;;;;27.60;19.80;;;;;;;;;;5055257;28;20507;-77
2021/07/03 03:11:43;;;;;;;28.57;20.90;;;;;;;;;;5055143;28;20416;-78
2021/07/03 03:14:09;;;;;;;28.00;20.90;;;;;;;;;;5054568;28;20836;-79
2021/07/03 03:16:36;;;;;;;25.63;18.77;;;;;;;;;;5055073;28;20522;-78
2021/07/03 03:19:02;;;;;;;25.27;19.30;;;;;;;;;;5055118;28;20458;-79
2021/07/03 03:21:29;;;;;;;24.27;18.60;;;;;;;;;;5055042;28;20412;-77
2021/07/03 03:23:55;;;;;;;27.77;19.73;;;;;;;;;;5053617;28;20431;-79
2021/07/03 03:26:21;;;;;;;24.93;19.00;;;;;;;;;;5055093;28;20428;-78
2021/07/03 03:28:47;;;;;;;26.00;19.10;;;;;;;;;;5055066;28;20431;-76
2021/07/03 03:31:13;;;;;;;25.00;19.20;;;;;;;;;;5055054;28;20457;-78
2021/07/03 03:33:39;;;;;;;26.57;18.17;;;;;;;;;;5054391;28;20408;-78
2021/07/03 03:36:05;;;;;;;23.90;19.73;;;;;;;;;;5054845;28;20411;-77
2021/07/03 03:38:31;;;;;;;22.50;17.90;;;;;;;;;;5053452;28;20408;-76
2021/07/03 03:40:57;;;;;;;24.50;18.27;;;;;;;;;;5054686;28;20403;-78
2021/07/03 03:43:23;;;;;;;24.33;18.70;;;;;;;;;;5053064;28;20422;-78
2021/07/03 03:45:49;;;;;;;27.60;17.70;;;;;;;;;;5054528;28;20432;-77
2021/07/03 03:48:15;;;;;;;22.17;17.90;;;;;;;;;;5054435;28;20466;-77
2021/07/03 03:50:41;;;;;;;24.60;17.80;;;;;;;;;;5053222;28;20404;-78
2021/07/03 03:53:07;;;;;;;21.63;17.40;;;;;;;;;;5054121;28;20982;-78
2021/07/03 03:55:33;;;;;;;25.53;18.90;;;;;;;;;;5052923;28;20468;-78
2021/07/03 03:57:59;;;;;;;31.13;18.40;;;;;;;;;;5053123;28;20793;-79
2021/07/03 04:00:25;;;;;;;25.23;18.43;;;;;;;;;;5054291;28;20416;-78
2021/07/03 04:02:51;;;;;;;21.37;18.30;;;;;;;;;;5053828;28;20889;-77
2021/07/03 04:05:17;;;;;;;25.33;18.47;;;;;;;;;;5054170;28;20467;-78
2021/07/03 04:07:44;;;;;;;24.33;18.10;;;;;;;;;;5054180;28;20503;-78
2021/07/03 04:10:10;;;;;;;24.90;18.47;;;;;;;;;;5047574;28;20416;-77
2021/07/03 04:12:37;;;;;;;23.53;17.93;;;;;;;;;;5034157;28;20456;-79
2021/07/03 04:15:04;;;;;;;22.40;17.70;;;;;;;;;;5033722;28;20446;-77
2021/07/03 04:17:30;;;;;;;27.33;18.77;;;;;;;;;;5034232;28;20776;-78
2021/07/03 04:19:56;;;;;;;27.43;17.80;;;;;;;;;;5034211;28;20417;-78
2021/07/03 04:22:22;;;;;;;27.40;19.63;;;;;;;;;;5033979;28;20409;-79
2021/07/03 04:24:48;;;;;;;27.10;18.20;;;;;;;;;;5032496;28;20432;-77
2021/07/03 04:27:14;;;;;;;24.27;19.07;;;;;;;;;;5033891;28;20424;-77
2021/07/03 04:29:40;;;;;;;21.87;16.60;;;;;;;;;;5033950;28;20882;-78
2021/07/03 04:32:07;;;;;;;24.97;17.93;;;;;;;;;;5033841;28;20387;-77
2021/07/03 04:34:32;;;;;;;26.70;19.40;;;;;;;;;;5032004;28;20478;-79
2021/07/03 04:36:59;;;;;;;23.10;16.03;;;;;;;;;;5033650;28;20488;-79
2021/07/03 04:39:26;;;;;;;25.30;16.93;;;;;;;;;;5033792;28;20409;-77
2021/07/03 04:41:52;;;;;;;23.60;18.57;;;;;;;;;;5032634;28;20444;-78
2021/07/03 04:44:19;;;;;;;23.77;18.00;;;;;;;;;;5032899;28;20864;-77
2021/07/03 04:46:45;;;;;;;28.53;18.40;;;;;;;;;;5032316;28;20914;-79
2021/07/03 04:49:12;;;;;;;26.70;17.57;;;;;;;;;;5033564;28;20432;-76
2021/07/03 04:51:38;;;;;;;28.23;18.77;;;;;;;;;;5033740;28;20444;-77
2021/07/03 04:54:04;;;;;;;29.80;19.90;;;;;;;;;;5032015;28;20989;-78
2021/07/03 04:56:30;;;;;;;23.60;19.43;;;;;;;;;;5032139;28;20417;-78
2021/07/03 04:58:56;;;;;;;33.37;20.20;;;;;;;;;;5033434;28;20405;-76
2021/07/03 05:01:23;;;;;;;25.00;19.33;;;;;;;;;;5043472;28;20403;-77
2021/07/03 05:03:49;;;;;;;24.73;19.83;;;;;;;;;;5053059;28;20375;-78
2021/07/03 05:06:15;;;;;;;26.13;20.30;;;;;;;;;;5052242;28;20416;-77
2021/07/03 05:08:41;;;;;;;27.47;21.63;;;;;;;;;;5053409;28;20379;-78
2021/07/03 05:11:08;;;;;;;27.37;20.23;;;;;;;;;;5051809;28;20441;-77
2021/07/03 05:13:34;;;;;;;26.90;21.43;;;;;;;;;;5052865;28;20477;-77
2021/07/03 05:16:00;;;;;;;27.30;21.47;;;;;;;;;;5051784;28;20550;-78
2021/07/03 05:18:26;;;;;;;36.50;23.10;;;;;;;;;;5053090;28;20374;-77
2021/07/03 05:20:52;;;;;;;31.13;23.53;;;;;;;;;;5053161;28;20461;-78
2021/07/03 05:23:18;;;;;;;28.23;21.93;;;;;;;;;;5052672;28;20404;-77
2021/07/03 05:25:45;;;;;;;30.90;24.03;;;;;;;;;;5052917;28;20402;-77
2021/07/03 05:28:11;;;;;;;32.53;22.60;;;;;;;;;;5052914;28;20503;-77
2021/07/03 05:30:38;;;;;;;29.80;23.63;;;;;;;;;;5052939;28;20457;-78
2021/07/03 05:33:04;;;;;;;32.23;21.77;;;;;;;;;;5052636;28;20408;-77
2021/07/03 05:35:30;;;;;;;32.33;24.07;;;;;;;;;;5052847;28;20656;-77
2021/07/03 05:37:56;;;;;;;35.00;22.97;;;;;;;;;;5053090;28;20417;-76
2021/07/03 05:40:23;;;;;;;30.20;23.87;;;;;;;;;;5051605;28;20465;-77
2021/07/03 05:42:49;;;;;;;35.00;24.60;;;;;;;;;;5051383;28;20412;-77
2021/07/03 05:45:15;;;;;;;32.93;23.80;;;;;;;;;;5052688;28;20423;-76
2021/07/03 05:47:49;;;;;;;28.20;21.27;;;;;;;;;;5035229;28;20428;-76
2021/07/03 05:50:15;;;;;;;27.17;21.20;;;;;;;;;;5052752;28;20404;-77
2021/07/03 05:52:41;;;;;;;25.70;21.00;;;;;;;;;;5052621;28;20499;-77
2021/07/03 05:55:07;;;;;;;27.60;22.00;;;;;;;;;;5052331;28;20450;-77
2021/07/03 05:57:33;;;;;;;34.40;20.90;;;;;;;;;;5054908;28;20412;-77
2021/07/03 05:59:59;;;;;;;28.87;19.23;;;;;;;;;;5056599;28;20481;-76
2021/07/03 06:02:25;;;;;;;25.30;18.80;;;;;;;;;;5055208;28;20860;-78
2021/07/03 06:04:51;;;;;;;23.03;17.47;;;;;;;;;;5055015;28;20435;-77
2021/07/03 06:07:17;;;;;;;25.03;17.40;;;;;;;;;;5056523;28;20885;-77
2021/07/03 06:09:43;;;;;;;21.37;17.10;;;;;;;;;;5054993;28;20447;-77
2021/07/03 06:12:09;;;;;;;21.37;16.73;;;;;;;;;;5056507;28;20419;-77
2021/07/03 06:14:35;;;;;;;18.80;15.63;;;;;;;;;;5055735;28;20472;-77
2021/07/03 06:17:01;;;;;;;22.67;17.00;;;;;;;;;;5054928;28;20424;-77
2021/07/03 06:19:27;;;;;;;17.50;14.80;;;;;;;;;;5055318;28;20400;-78
2021/07/03 06:21:53;;;;;;;19.60;14.67;;;;;;;;;;5056221;28;20430;-78
2021/07/03 06:24:19;;;;;;;19.10;14.90;;;;;;;;;;5054572;28;20436;-78
2021/07/03 06:26:45;;;;;;;24.23;14.90;;;;;;;;;;5055996;28;20939;-78
2021/07/03 06:29:11;;;;;;;17.90;14.73;;;;;;;;;;5054904;28;20416;-77
2021/07/03 06:31:37;;;;;;;18.30;14.33;;;;;;;;;;5056143;28;20418;-76
2021/07/03 06:34:03;;;;;;;20.80;13.47;;;;;;;;;;5055402;28;20819;-78
2021/07/03 06:36:30;;;;;;;19.90;13.77;;;;;;;;;;5054649;28;20477;-78
2021/07/03 06:38:56;;;;;;;20.53;14.37;;;;;;;;;;5055913;28;20821;-77
2021/07/03 06:41:23;;;;;;;23.67;12.60;;;;;;;;;;5054419;28;20470;-77
2021/07/03 06:43:49;;;;;;;20.67;13.53;;;;;;;;;;5054109;28;20416;-78
2021/07/03 06:46:15;;;;;;;19.20;12.30;;;;;;;;;;5055664;28;20407;-77
2021/07/03 06:48:41;;;;;;;15.90;12.90;;;;;;;;;;5055744;28;20931;-78
2021/07/03 06:51:07;;;;;;;16.20;12.93;;;;;;;;;;5055595;28;20416;-79
2021/07/03 06:53:33;;;;;;;21.00;13.00;;;;;;;;;;5055074;28;20415;-78
2021/07/03 06:56:01;;;;;;;20.53;13.40;;;;;;;;;;5055261;28;20460;-77
2021/07/03 06:58:27;;;;;;;14.33;10.90;;;;;;;;;;5055392;28;20878;-78
2021/07/03 07:00:53;;;;;;;15.30;11.80;;;;;;;;;;5054106;28;20509;-77
2021/07/03 07:03:19;;;;;;;16.40;12.20;;;;;;;;;;5054998;28;20744;-78
2021/07/03 07:05:45;;;;;;;15.53;11.50;;;;;;;;;;5055274;28;20414;-77
2021/07/03 07:08:11;;;;;;;14.23;11.50;;;;;;;;;;5054723;28;20387;-78
2021/07/03 07:10:37;;;;;;;15.83;12.17;;;;;;;;;;5055457;28;20394;-77
2021/07/03 07:13:07;;;;;;;14.43;11.27;;;;;;;;;;5054884;28;20449;-78
2021/07/03 07:15:33;;;;;;;15.43;11.53;;;;;;;;;;5055138;28;20478;-76
2021/07/03 07:17:59;;;;;;;16.20;11.23;;;;;;;;;;5055285;28;20503;-77
2021/07/03 07:20:25;;;;;;;14.40;11.97;;;;;;;;;;5055096;28;20382;-77
2021/07/03 07:22:51;;;;;;;15.33;12.63;;;;;;;;;;5053405;28;20416;-77
2021/07/03 07:25:18;;;;;;;14.37;11.00;;;;;;;;;;5054607;28;21109;-79
2021/07/03 07:27:43;;;;;;;14.57;12.37;;;;;;;;;;5055028;28;20723;-76
2021/07/03 07:30:10;;;;;;;15.53;11.20;;;;;;;;;;5054781;28;20394;-78
2021/07/03 07:32:36;;;;;;;12.43;9.60;;;;;;;;;;5053465;28;20387;-78
2021/07/03 07:35:02;;;;;;;12.90;8.33;;;;;;;;;;5054500;28;20438;-77
2021/07/03 07:37:29;;;;;;;10.53;9.43;;;;;;;;;;5053644;28;20974;-77
2021/07/03 07:39:55;;;;;;;10.40;7.97;;;;;;;;;;5055016;28;20398;-78
2021/07/03 07:42:21;;;;;;;9.57;8.60;;;;;;;;;;5054659;28;20731;-79
2021/07/03 07:44:46;;;;;;;11.93;9.43;;;;;;;;;;5053041;28;20451;-78
2021/07/03 07:47:12;;;;;;;11.00;8.07;;;;;;;;;;5053208;28;20887;-77
2021/07/03 07:49:38;;;;;;;10.30;7.63;;;;;;;;;;5054477;28;20448;-77
2021/07/03 07:52:05;;;;;;;8.90;8.00;;;;;;;;;;5054469;28;20402;-78
2021/07/03 07:54:31;;;;;;;9.20;7.53;;;;;;;;;;5053911;28;20518;-79
2021/07/03 07:56:59;;;;;;;7.77;6.97;;;;;;;;;;5054272;28;20378;-78
2021/07/03 07:59:25;;;;;;;7.53;6.80;;;;;;;;;;5053019;28;20420;-78
2021/07/03 08:01:51;;;;;;;8.13;7.17;;;;;;;;;;5052985;28;20699;-79
2021/07/03 08:04:17;;;;;;;9.23;6.60;;;;;;;;;;5052603;28;20455;-79
2021/07/03 08:06:43;;;;;;;9.67;7.07;;;;;;;;;;5053994;28;20412;-78
2021/07/03 08:09:09;;;;;;;8.70;6.93;;;;;;;;;;5054117;28;20405;-79
2021/07/03 08:11:35;;;;;;;7.93;6.33;;;;;;;;;;5054363;28;20932;-80
2021/07/03 08:14:02;;;;;;;7.53;6.83;;;;;;;;;;5053086;28;20455;-77
2021/07/03 08:16:28;;;;;;;6.37;5.73;;;;;;;;;;5036589;28;20417;-78
2021/07/03 08:18:53;;;;;;;7.17;6.37;;;;;;;;;;5033391;28;20462;-77
2021/07/03 08:21:20;;;;;;;6.83;5.63;;;;;;;;;;5033786;28;20417;-77
2021/07/03 08:23:46;;;;;;;7.20;6.50;;;;;;;;;;5032542;28;20411;-79
2021/07/03 08:26:12;;;;;;;7.00;6.30;;;;;;;;;;5034092;28;20459;-80
2021/07/03 08:28:38;;;;;;;6.90;6.30;;;;;;;;;;5034084;28;20504;-80
2021/07/03 08:31:04;;;;;;;5.83;5.33;;;;;;;;;;5034011;28;20513;-80
2021/07/03 08:33:30;;;;;;;6.73;6.13;;;;;;;;;;5033790;28;20436;-78
2021/07/03 08:35:56;;;;;;;7.07;6.03;;;;;;;;;;5033665;28;20858;-77
2021/07/03 08:38:24;;;;;;;11.10;6.67;;;;;;;;;;5033601;28;20416;-76
2021/07/03 08:40:50;;;;;;;8.97;6.60;;;;;;;;;;5033634;28;20824;-76
2021/07/03 08:43:16;;;;;;;7.00;5.93;;;;;;;;;;5033390;28;20955;-77
2021/07/03 08:45:42;;;;;;;6.83;5.93;;;;;;;;;;5033640;28;20437;-76
2021/07/03 08:48:08;;;;;;;8.23;6.60;;;;;;;;;;5033749;28;20417;-76
2021/07/03 08:50:34;;;;;;;8.23;5.70;;;;;;;;;;5033570;28;20417;-76
2021/07/03 08:53:00;;;;;;;7.60;6.37;;;;;;;;;;5033086;28;20413;-78
2021/07/03 08:55:29;;;;;;;5.67;5.17;;;;;;;;;;5033327;28;20551;-76
2021/07/03 08:57:59;;;;;;;6.00;5.23;;;;;;;;;;5033266;28;20420;-77
2021/07/03 09:00:30;;;;;;;6.70;5.77;;;;;;;;;;5033870;28;20405;-76
2021/07/03 09:02:56;;;;;;;5.27;4.77;;;;;;;;;;5033057;28;20409;-76
2021/07/03 09:05:24;;;;;;;4.40;4.00;;;;;;;;;;5033148;28;20802;-76
2021/07/03 09:07:51;;;;;;;4.57;4.17;;;;;;;;;;5033392;28;20787;-77
2021/07/03 09:10:21;;;;;;;5.00;4.50;;;;;;;;;;5033345;28;20413;-78
2021/07/03 09:12:48;;;;;;;5.03;4.13;;;;;;;;;;5032883;28;20443;-77
2021/07/03 09:15:16;;;;;;;5.00;4.50;;;;;;;;;;5033518;28;20471;-77
2021/07/03 09:17:55;;;;;;;5.07;4.60;;;;;;;;;;5044175;28;20412;-78
2021/07/03 09:20:29;;;;;;;4.17;3.77;;;;;;;;;;5053533;28;20479;-77
2021/07/03 09:23:02;;;;;;;5.23;4.00;;;;;;;;;;5053118;28;20495;-77
2021/07/03 09:25:28;;;;;;;4.33;4.03;;;;;;;;;;5053058;28;20431;-77
2021/07/03 09:27:56;;;;;;;5.47;4.97;;;;;;;;;;5052014;28;20440;-76
2021/07/03 09:30:22;;;;;;;5.20;4.70;;;;;;;;;;5053617;28;20408;-75
2021/07/03 09:32:54;;;;;;;8.50;5.30;;;;;;;;;;5055500;28;20415;-76
2021/07/03 09:35:21;;;;;;;4.80;4.40;;;;;;;;;;5056502;28;20960;-76
2021/07/03 09:37:48;;;;;;;4.97;4.53;;;;;;;;;;5057158;28;20843;-77
2021/07/03 09:40:14;;;;;;;4.67;4.27;;;;;;;;;;5057168;28;20415;-76
2021/07/03 09:42:41;;;;;;;4.47;4.17;;;;;;;;;;5057066;28;20465;-76
2021/07/03 09:45:08;;;;;;;4.70;4.40;;;;;;;;;;5056629;28;20432;-76
2021/07/03 09:47:34;;;;;;;4.90;4.50;;;;;;;;;;5056822;28;20469;-78
2021/07/03 09:50:11;;;;;;;7.00;4.47;;;;;;;;;;5056926;28;20440;-77
2021/07/03 09:52:38;;;;;;;4.60;4.20;;;;;;;;;;5056913;28;20771;-76
2021/07/03 09:55:06;;;;;;;4.93;3.80;;;;;;;;;;5056377;28;20528;-76
2021/07/03 09:57:35;;;;;;;4.90;4.10;;;;;;;;;;5055249;28;20769;-76
2021/07/03 10:00:01;;;;;;;3.80;3.50;;;;;;;;;;5056698;28;20817;-76
2021/07/03 10:02:27;;;;;;;4.47;3.33;;;;;;;;;;5056338;28;20971;-77
2021/07/03 10:04:53;;;;;;;3.40;3.10;;;;;;;;;;5056177;28;20456;-75
2021/07/03 10:07:19;;;;;;;3.37;3.17;;;;;;;;;;5055733;28;20844;-75
2021/07/03 10:09:47;;;;;;;3.47;3.17;;;;;;;;;;5053795;28;20419;-78
2021/07/03 10:12:18;;;;;;;3.30;3.00;;;;;;;;;;5055304;28;20423;-76
2021/07/03 10:14:48;;;;;;;4.40;3.67;;;;;;;;;;5054237;28;20511;-77
2021/07/03 10:17:24;;;;;;;3.77;3.47;;;;;;;;;;5056398;28;20408;-77
2021/07/03 10:19:50;;;;;;;3.40;3.10;;;;;;;;;;5056046;28;20483;-76
2021/07/03 10:22:20;;;;;;;4.13;3.23;;;;;;;;;;5056209;28;20408;-76
2021/07/03 10:24:52;;;;;;;3.50;3.20;;;;;;;;;;5055801;28;20432;-76
2021/07/03 10:27:19;;;;;;;3.90;3.60;;;;;;;;;;5056299;28;20462;-76
2021/07/03 10:29:47;;;;;;;3.80;3.37;;;;;;;;;;5055940;28;20416;-78
2021/07/03 10:32:45;;;;;;;3.43;3.13;;;;;;;;;;5056396;28;20850;-76
2021/07/03 10:35:18;;;;;;;3.20;2.70;;;;;;;;;;5044044;28;20965;-78
2021/07/03 10:37:44;;;;;;;6.33;4.07;;;;;;;;;;5056080;28;20754;-74
2021/07/03 10:40:20;;;;;;;5.83;3.23;;;;;;;;;;5056014;28;20412;-75
2021/07/03 10:42:47;;;;;;;4.33;3.17;;;;;;;;;;5054875;28;20920;-74
2021/07/03 10:45:14;;;;;;;4.57;3.27;;;;;;;;;;5055654;28;20515;-77
2021/07/03 10:47:40;;;;;;;3.63;3.30;;;;;;;;;;5055683;28;20439;-76
2021/07/03 10:50:19;;;;;;;3.83;3.53;;;;;;;;;;5055455;28;20465;-74
2021/07/03 10:52:45;;;;;;;3.13;2.63;;;;;;;;;;5055238;28;20412;-77
2021/07/03 10:55:11;;;;;;;2.80;2.60;;;;;;;;;;5055589;28;20972;-77
2021/07/03 10:57:42;;;;;;;2.97;2.77;;;;;;;;;;5055449;28;20419;-78
2021/07/03 11:00:08;;;;;;;2.70;2.50;;;;;;;;;;5055424;28;20439;-75
2021/07/03 11:02:34;;;;;;;2.93;2.73;;;;;;;;;;5055299;28;20412;-75
2021/07/03 11:05:01;;;;;;;4.10;2.93;;;;;;;;;;5053634;28;20802;-74
2021/07/03 11:07:31;;;;;;;3.10;2.80;;;;;;;;;;5055193;28;20411;-76
2021/07/03 11:10:08;;;;;;;3.80;3.00;;;;;;;;;;5055049;28;20507;-74
2021/07/03 11:12:44;;;;;;;3.27;3.00;;;;;;;;;;5055106;28;20415;-74
2021/07/03 11:15:10;;;;;;;2.93;2.73;;;;;;;;;;5053642;28;20538;-76
2021/07/03 11:17:36;;;;;;;3.37;3.03;;;;;;;;;;5055399;28;20442;-77
2021/07/03 11:20:03;;;;;;;3.43;3.10;;;;;;;;;;5053812;28;20773;-76
2021/07/03 11:22:29;;;;;;;3.07;2.80;;;;;;;;;;5038688;28;20429;-75
2021/07/03 11:24:58;;;;;;;3.57;3.27;;;;;;;;;;5037300;28;20444;-77
2021/07/03 11:27:27;;;;;;;3.60;3.30;;;;;;;;;;5035192;28;20769;-78
2021/07/03 11:29:54;;;;;;;3.70;3.20;;;;;;;;;;5034960;28;20412;-76
2021/07/03 11:32:20;;;;;;;3.20;2.90;;;;;;;;;;5034925;28;20818;-75
2021/07/03 11:34:54;;;;;;;3.87;3.57;;;;;;;;;;5034508;28;20559;-76
2021/07/03 11:37:33;;;;;;;3.37;2.80;;;;;;;;;;5034797;28;20412;-74
2021/07/03 11:40:00;;;;;;;3.40;3.10;;;;;;;;;;5043686;28;20408;-78
2021/07/03 11:42:30;;;;;;;6.43;3.63;;;;;;;;;;5054525;28;20426;-74
2021/07/03 11:44:57;;;;;;;4.17;3.50;;;;;;;;;;5054397;28;20486;-74
2021/07/03 11:47:33;;;;;;;3.73;3.20;;;;;;;;;;5053959;28;20482;-74
2021/07/03 11:49:59;;;;;;;4.20;3.40;;;;;;;;;;5044864;28;20511;-77
2021/07/03 11:52:25;;;;;;;2.97;2.77;;;;;;;;;;5034664;28;20798;-77
2021/07/03 11:54:51;;;;;;;3.77;3.47;;;;;;;;;;5033142;28;20493;-78
2021/07/03 11:57:17;;;;;;;3.27;2.97;;;;;;;;;;5034555;28;20746;-75
2021/07/03 11:59:43;;;;;;;3.03;2.83;;;;;;;;;;5034345;28;20463;-76
2021/07/03 12:02:09;;;;;;;6.33;3.30;;;;;;;;;;5034302;28;20417;-75
2021/07/03 12:04:35;;;;;;;3.57;3.27;;;;;;;;;;5033896;28;20440;-75
2021/07/03 12:07:01;;;;;;;3.37;3.13;;;;;;;;;;5033031;28;20519;-76
2021/07/03 12:09:34;;;;;;;3.33;3.03;;;;;;;;;;5034130;28;20441;-76
2021/07/03 12:12:00;;;;;;;4.13;3.73;;;;;;;;;;5034072;28;20408;-77
2021/07/03 12:14:26;;;;;;;4.00;3.70;;;;;;;;;;5033386;28;20465;-76
2021/07/03 12:16:57;;;;;;;6.30;3.57;;;;;;;;;;5033754;28;20405;-77
2021/07/03 12:19:23;;;;;;;4.77;3.10;;;;;;;;;;5032646;28;20774;-79
2021/07/03 12:21:50;;;;;;;4.10;3.70;;;;;;;;;;5033697;28;20439;-76
2021/07/03 12:24:16;;;;;;;4.33;3.33;;;;;;;;;;5033640;28;20922;-78
2021/07/03 12:26:49;;;;;;;3.70;3.33;;;;;;;;;;5033677;28;20481;-79
2021/07/03 12:29:36;;;;;;;5.77;3.70;;;;;;;;;;5033773;28;20417;-77
2021/07/03 12:32:11;;;;;;;3.63;3.33;;;;;;;;;;5034010;28;20401;-77
2021/07/03 12:34:38;;;;;;;3.80;3.50;;;;;;;;;;5032991;28;20452;-77
2021/07/03 12:37:06;;;;;;;4.23;2.97;;;;;;;;;;5032738;28;20424;-76
2021/07/03 12:39:33;;;;;;;5.70;4.00;;;;;;;;;;5033780;28;20928;-77
2021/07/03 12:42:01;;;;;;;6.10;3.47;;;;;;;;;;5033927;28;20441;-76
2021/07/03 12:44:34;;;;;;;3.73;3.37;;;;;;;;;;5033297;28;20465;-77
2021/07/03 12:47:01;;;;;;;3.17;2.87;;;;;;;;;;5033594;28;20415;-79
2021/07/03 12:49:43;;;;;;;3.43;3.23;;;;;;;;;;5033639;28;20413;-78
2021/07/03 12:52:10;;;;;;;3.60;3.30;;;;;;;;;;5033591;28;20463;-77
2021/07/03 12:54:36;;;;;;;3.37;3.03;;;;;;;;;;5031657;28;20468;-76
2021/07/03 12:57:03;;;;;;;3.90;3.60;;;;;;;;;;5033371;28;20408;-77
2021/07/03 12:59:41;;;;;;;3.50;3.20;;;;;;;;;;5032204;28;20463;-77
2021/07/03 13:02:14;;;;;;;4.10;3.50;;;;;;;;;;5032091;28;20959;-77
2021/07/03 13:04:44;;;;;;;8.00;3.63;;;;;;;;;;5033162;28;20448;-78
2021/07/03 13:07:13;;;;;;;3.47;3.17;;;;;;;;;;5032917;28;20451;-78
2021/07/03 13:09:39;;;;;;;4.63;3.50;;;;;;;;;;5033276;28;20501;-77
2021/07/03 13:12:06;;;;;;;4.83;3.13;;;;;;;;;;5032015;28;20421;-76
2021/07/03 13:14:31;;;;;;;3.70;3.27;;;;;;;;;;5032555;28;20516;-76
2021/07/03 13:17:13;;;;;;;5.13;4.00;;;;;;;;;;5021436;28;20797;-77
2021/07/03 13:19:39;;;;;;;6.20;4.50;;;;;;;;;;5033139;28;20411;-77
2021/07/03 13:22:05;;;;;;;5.07;4.33;;;;;;;;;;5033168;28;20875;-76
2021/07/03 13:24:31;;;;;;;5.40;3.53;;;;;;;;;;5032584;28;20433;-79
2021/07/03 13:26:57;;;;;;;4.00;3.70;;;;;;;;;;5032854;28;20413;-78
2021/07/03 13:29:23;;;;;;;5.70;3.73;;;;;;;;;;5031721;28;20894;-77
2021/07/03 13:31:49;;;;;;;4.33;3.93;;;;;;;;;;5033202;28;20508;-78
2021/07/03 13:34:17;;;;;;;5.03;3.50;;;;;;;;;;5032467;28;20424;-78
2021/07/03 13:36:43;;;;;;;5.37;3.97;;;;;;;;;;5033052;28;20408;-77
2021/07/03 13:39:09;;;;;;;4.17;3.77;;;;;;;;;;5032865;28;20406;-79
2021/07/03 13:41:35;;;;;;;4.00;3.53;;;;;;;;;;5033015;28;20409;-76
2021/07/03 13:44:01;;;;;;;3.93;3.33;;;;;;;;;;5032448;28;20452;-77
2021/07/03 13:46:27;;;;;;;4.50;3.60;;;;;;;;;;5032599;28;20849;-78
2021/07/03 13:48:53;;;;;;;7.20;3.50;;;;;;;;;;5031693;28;20476;-78
2021/07/03 13:51:19;;;;;;;4.10;3.37;;;;;;;;;;5032641;28;20730;-77
2021/07/03 13:53:45;;;;;;;4.27;3.87;;;;;;;;;;5031234;28;20413;-78
2021/07/03 13:56:11;;;;;;;4.57;4.20;;;;;;;;;;5032695;28;20472;-80
2021/07/03 13:58:37;;;;;;;5.17;3.70;;;;;;;;;;5032383;28;20409;-78
2021/07/03 14:01:06;;;;;;;20.10;4.40;;;;;;;;;;5032720;28;20405;-79
2021/07/03 14:03:32;;;;;;;5.90;4.10;;;;;;;;;;5036201;28;21100;-77
2021/07/03 14:05:58;;;;;;;12.40;4.17;;;;;;;;;;5042155;28;20413;-78
2021/07/03 14:08:24;;;;;;;4.73;4.30;;;;;;;;;;5033158;28;20421;-78
2021/07/03 14:10:50;;;;;;;27.23;5.00;;;;;;;;;;5031287;28;20447;-79
2021/07/03 14:13:16;;;;;;;6.57;4.00;;;;;;;;;;5032108;28;20428;-78
2021/07/03 14:15:42;;;;;;;4.27;3.87;;;;;;;;;;5032056;28;20479;-77
2021/07/03 14:18:08;;;;;;;4.30;3.70;;;;;;;;;;5034262;28;20413;-78
2021/07/03 14:20:34;;;;;;;6.30;4.30;;;;;;;;;;5036265;28;20411;-77
2021/07/03 14:23:00;;;;;;;3.97;3.60;;;;;;;;;;5036062;28;20409;-78
2021/07/03 14:25:29;;;;;;;6.20;4.70;;;;;;;;;;5036039;28;20914;-80
2021/07/03 14:27:55;;;;;;;4.40;4.00;;;;;;;;;;5036061;28;20429;-80